Rye, NH (03870)

7:27 PM EDT on March 25, 2017 (GMT -0400)
Greenland, NH | | Change Station

Elev 96 ft 43.03 °N, 70.83 °W | Updated 38 seconds ago

Mostly Cloudy
Mostly Cloudy
33.2 °F
Feels Like 33 °F
N
0.0
Wind Variable Wind from ENE
Gusts 1.0 mph

Today
High -- | Low -- °F
--% Chance of Precip.
Yesterday
High -- | Low -- °F
Precip. -- in
Pressure 30.32 in
Visibility 6.0 miles
Clouds Few 700 ft
Scattered Clouds 2500 ft
Mostly Cloudy 25000 ft
Windchill 33 °F
Dew Point 32 °F
Humidity 95%
Rainfall 0.22 in
Snow Depth Not available.
6:37 AM 7:01 PM
Waning Crescent, 6% visible
METAR KPSM 252258Z 00000KT 6SM BR FEW007 SCT025 BKN250 02/01 A3031 RMK AO2A SLP267 T00200011
Pressure 30.32 in
Visibility 6.0 miles
Clouds Few 700 ft
Scattered Clouds 2500 ft
Mostly Cloudy 25000 ft
Windchill 33 °F
Dew Point 32 °F
Humidity 95%
Rainfall 0.22 in
Snow Depth Not available.
6:37 AM 7:01 PM
Waning Crescent, 6% visible
METAR KPSM 252258Z 00000KT 6SM BR FEW007 SCT025 BKN250 02/01 A3031 RMK AO2A SLP267 T00200011

Get Severe Weather Alerts

Thanks for signing up!

Be on the lookout for a verification email in your inbox.

You'll start receiving the daily forecast at 8 AM.

×

10-Day Weather Forecast

Almanac

Astronomy

Mar. 25, 2017 Rise Set
Actual Time
Civil Twilight
Nautical Twilight
Astronomical Twilight
Moon
Length of Visible Light
Length of Day
Tomorrow will be .
, % of the Moon is Illuminated

Today's Extremes

State Highs State Lows

Community

WunderPhotos

Upload Photos

1,962,540 photos uploaded!

WunderBlog® & News

Nearby

Air Quality

  Air Quality AQ Index Pollutant
Not available.

Snow Depth

Station Depth Elevation

Earthquake Activity

City Distance Mag. Time & Date
Minimum magnitude displayed is 2.5.

Earthquake Activity

City Distance Mag. Time & Date
Minimum magnitude displayed is 2.5.

Coastal Water Temperatures

Place Temperature

Stations

Nearby Weather Stations

Station Location Temp. Windchill Dew Point Humidity Wind Precip. Elev Updated Type
                   

Watches & Warnings

There are currently no watches in effect.